Time;durP1;ratioP1;P1;durP2;ratioP2;P2;SDS_P1;SDS_P2;PMS_P1;PMS_P2;Temp;Humidity;BMP_temperature;BMP_pressure;BME280_temperature;BME280_humidity;BME280_pressure;Samples;Min_cycle;Max_cycle;Signal;HPM_P1;HPM_P2
2023/12/14 00:01:20;;;;;;;6.53;4.90;;;7.40;94.20;;;9.12;64.78;100835.31;3082171;46;21012;-70
2023/12/14 00:03:48;;;;;;;5.87;5.17;;;7.40;94.00;;;9.11;65.20;100833.66;3082194;46;21119;-70
2023/12/14 00:06:17;;;;;;;6.03;5.43;;;7.40;94.00;;;9.08;64.82;100833.97;3082235;46;20988;-69
2023/12/14 00:08:45;;;;;;;5.50;5.00;;;7.40;93.90;;;9.03;64.30;100836.28;3081785;46;20903;-70
2023/12/14 00:11:14;;;;;;;5.80;5.23;;;7.40;93.60;;;9.00;64.58;100841.88;3082086;46;20548;-69
2023/12/14 00:13:42;;;;;;;5.90;5.30;;;7.30;93.70;;;9.00;65.20;100847.09;3082328;46;21082;-70
2023/12/14 00:16:10;;;;;;;5.33;4.83;;;7.40;94.00;;;9.03;65.20;100852.03;3082217;46;21073;-70
2023/12/14 00:18:39;;;;;;;6.07;5.47;;;7.40;94.00;;;9.08;64.82;100857.59;3081138;46;20442;-69
2023/12/14 00:21:07;;;;;;;6.77;5.93;;;7.40;94.10;;;9.10;64.81;100863.53;3081982;46;21113;-70
2023/12/14 00:23:36;;;;;;;6.57;5.73;;;7.40;94.00;;;9.12;65.00;100861.56;3082002;46;20428;-70
2023/12/14 00:26:04;;;;;;;5.77;5.27;;;7.40;94.10;;;9.13;64.66;100876.31;3081870;46;20509;-70
2023/12/14 00:28:32;;;;;;;5.90;5.30;;;7.40;93.90;;;9.12;64.72;100871.25;3081384;46;21129;-70
2023/12/14 00:31:01;;;;;;;9.43;6.37;;;7.40;93.80;;;9.09;64.17;100869.75;3081210;46;20484;-71
2023/12/14 00:33:30;;;;;;;8.43;6.63;;;7.40;93.60;;;9.08;64.72;100886.47;3081837;46;21244;-70
2023/12/14 00:35:58;;;;;;;7.00;6.30;;;7.40;93.60;;;9.04;64.26;100881.72;3081872;46;21083;-70
2023/12/14 00:38:26;;;;;;;6.53;5.83;;;7.40;93.40;;;9.01;64.44;100880.22;3081228;46;20516;-67
2023/12/14 00:40:55;;;;;;;8.43;6.33;;;7.40;93.50;;;8.93;63.75;100885.50;3081333;46;21081;-70
2023/12/14 00:43:23;;;;;;;6.47;5.70;;;7.40;93.10;;;8.86;63.75;100887.09;3081897;46;21085;-70
2023/12/14 00:45:52;;;;;;;6.73;5.30;;;7.30;93.00;;;8.75;63.56;100890.84;3081617;46;20427;-70
2023/12/14 00:48:21;;;;;;;8.07;5.90;;;7.20;92.80;;;8.71;63.84;100889.50;3081203;46;21214;-70
2023/12/14 00:50:49;;;;;;;7.33;6.10;;;7.20;93.10;;;8.68;63.71;100894.25;3081609;46;20498;-69
2023/12/14 00:53:17;;;;;;;8.17;5.83;;;7.10;92.90;;;8.66;64.18;100904.06;3081123;46;20566;-70
2023/12/14 00:55:46;;;;;;;7.83;5.93;;;7.10;93.10;;;8.69;63.98;100915.09;3081696;46;20542;-70
2023/12/14 00:58:14;;;;;;;7.13;5.70;;;7.10;93.20;;;8.69;64.18;100912.47;3080970;46;21000;-70
2023/12/14 01:00:43;;;;;;;9.13;5.67;;;7.10;93.30;;;8.73;64.01;100913.78;3081651;46;20473;-70
2023/12/14 01:03:11;;;;;;;6.30;5.70;;;7.10;93.40;;;8.75;64.26;100914.44;3081938;46;20486;-69
2023/12/14 01:05:39;;;;;;;6.27;5.47;;;7.10;93.30;;;8.79;64.03;100930.72;3082031;46;20450;-69
2023/12/14 01:08:08;;;;;;;5.83;5.07;;;7.10;93.40;;;8.80;63.79;100937.59;3081388;46;20443;-68
2023/12/14 01:10:37;;;;;;;7.70;6.27;;;7.10;93.30;;;8.78;63.86;100929.88;3081384;46;20431;-70
2023/12/14 01:13:05;;;;;;;6.47;5.50;;;7.10;93.30;;;8.82;63.56;100948.75;3081949;46;21021;-70
2023/12/14 01:15:33;;;;;;;5.43;4.70;;;7.10;93.30;;;8.82;63.79;100940.88;3081387;46;20428;-71
2023/12/14 01:18:02;;;;;;;6.43;4.97;;;7.10;93.30;;;8.85;63.91;100943.19;3081023;46;20518;-70
2023/12/14 01:20:30;;;;;;;6.10;4.80;;;7.10;93.30;;;8.87;63.81;100949.09;3081387;46;20439;-71
2023/12/14 01:22:59;;;;;;;5.30;4.30;;;7.20;93.30;;;8.87;63.19;100959.59;3081879;46;20504;-70
2023/12/14 01:25:27;;;;;;;4.90;4.40;;;7.20;93.00;;;8.81;63.10;100957.63;3081401;46;21055;-70
2023/12/14 01:27:55;;;;;;;4.47;4.07;;;7.20;92.80;;;8.77;63.19;100964.97;3081234;46;20444;-69
2023/12/14 01:30:24;;;;;;;5.73;4.50;;;7.10;92.70;;;8.76;63.20;100980.88;3081580;46;20500;-71
2023/12/14 01:32:52;;;;;;;5.13;4.20;;;7.10;92.80;;;8.75;63.11;100974.78;3081721;46;20550;-70
2023/12/14 01:35:21;;;;;;;5.67;4.07;;;7.10;92.60;;;8.71;63.04;100976.09;3081709;46;20465;-70
2023/12/14 01:37:49;;;;;;;5.63;3.57;;;7.10;92.60;;;8.71;63.40;100975.28;3080825;46;20467;-71
2023/12/14 01:40:20;;;;;;;6.53;4.97;;;7.10;92.70;;;8.70;63.18;100981.50;3081794;46;21092;-70
2023/12/14 01:42:48;;;;;;;5.47;3.70;;;7.10;92.70;;;8.70;62.92;100978.91;3080858;46;21007;-69
2023/12/14 01:45:17;;;;;;;5.73;4.00;;;7.10;92.70;;;8.69;63.51;100979.84;3081517;46;20427;-70
2023/12/14 01:47:45;;;;;;;4.47;4.07;;;7.10;92.90;;;8.67;63.20;100982.66;3080816;46;20550;-70
2023/12/14 01:50:14;;;;;;;5.40;3.90;;;7.10;92.80;;;8.65;63.40;100986.41;3080727;46;20631;-69
2023/12/14 01:52:42;;;;;;;6.10;3.80;;;7.00;92.70;;;8.61;63.29;100979.81;3081501;46;20504;-71
2023/12/14 01:55:10;;;;;;;6.13;4.10;;;7.00;92.80;;;8.58;63.26;100980.13;3081310;46;20456;-70
2023/12/14 01:57:39;;;;;;;4.20;3.80;;;7.00;92.80;;;8.57;63.41;100986.34;3081046;46;20442;-70
2023/12/14 02:00:22;;;;;;;6.07;3.97;;;7.00;92.80;;;8.54;63.65;100990.09;3080960;46;20431;-69
2023/12/14 02:02:51;;;;;;;5.17;3.27;;;7.00;92.90;;;8.56;64.15;100989.94;3082040;46;20573;-71
2023/12/14 02:05:20;;;;;;;4.33;3.60;;;7.00;93.00;;;8.57;63.74;100986.34;3083714;46;20427;-70
2023/12/14 02:07:49;;;;;;;6.83;3.53;;;7.00;92.90;;;8.56;63.96;100985.50;3083183;46;21066;-70
2023/12/14 02:10:18;;;;;;;4.10;3.20;;;7.00;93.00;;;8.54;63.60;100986.66;3083860;46;20438;-70
2023/12/14 02:12:46;;;;;;;5.33;4.00;;;7.00;92.80;;;8.50;63.87;100993.19;3083384;46;20480;-69
2023/12/14 02:15:14;;;;;;;4.67;3.30;;;6.90;92.80;;;8.49;63.71;100994.16;3083783;46;21102;-70
2023/12/14 02:17:43;;;;;;;4.87;3.90;;;6.90;92.90;;;8.51;63.85;100987.78;3083208;46;20506;-70
2023/12/14 02:20:11;;;;;;;5.90;3.80;;;6.90;93.00;;;8.57;64.10;100991.59;3083233;46;20431;-71
2023/12/14 02:22:55;;;;;;;4.90;3.30;;;6.90;93.10;;;8.60;64.01;100996.53;3083568;46;20484;-69
2023/12/14 02:25:24;;;;;;;3.77;3.30;;;7.00;93.10;;;8.63;63.77;100996.19;3083427;46;20549;-70
2023/12/14 02:27:53;;;;;;;4.73;3.37;;;7.00;93.00;;;8.62;63.77;101002.44;3082916;46;20478;-70
2023/12/14 02:30:21;;;;;;;3.43;2.80;;;7.00;93.00;;;8.65;63.64;101010.00;3083643;46;20545;-69
2023/12/14 02:32:49;;;;;;;4.00;3.00;;;7.00;93.00;;;8.69;63.62;101016.59;3083367;46;21112;-70
2023/12/14 02:35:18;;;;;;;4.03;3.47;;;7.00;93.10;;;8.75;63.76;101021.19;3083293;46;20498;-71
2023/12/14 02:37:46;;;;;;;6.00;4.00;;;7.00;93.00;;;8.78;63.66;101026.16;3082854;46;20546;-69
2023/12/14 02:40:15;;;;;;;4.00;3.47;;;7.00;92.90;;;8.82;63.44;101022.22;3083107;46;20452;-70
2023/12/14 02:42:43;;;;;;;4.13;3.37;;;7.00;92.70;;;8.84;63.15;101022.91;3082531;46;20515;-70
2023/12/14 02:45:11;;;;;;;3.90;3.03;;;7.00;92.70;;;8.86;63.13;101031.44;3082913;46;20542;-68
2023/12/14 02:47:40;;;;;;;5.33;3.17;;;7.10;92.80;;;8.88;63.42;101040.00;3082854;46;20503;-70
2023/12/14 02:50:09;;;;;;;4.40;3.37;;;7.10;92.80;;;8.88;62.80;101041.78;3082931;46;20576;-70
2023/12/14 02:52:37;;;;;;;5.87;3.67;;;7.10;92.60;;;8.87;63.19;101046.19;3083247;46;20432;-71
2023/12/14 02:55:06;;;;;;;4.97;3.63;;;7.10;92.60;;;8.87;63.02;101045.41;3082836;46;20514;-71
2023/12/14 02:57:35;;;;;;;4.20;3.27;;;7.10;92.80;;;8.89;63.25;101049.50;3082674;46;20468;-69
2023/12/14 03:00:04;;;;;;;4.13;3.40;;;7.10;92.90;;;8.89;63.17;101054.75;3083174;46;21022;-70
2023/12/14 03:02:32;;;;;;;3.80;3.40;;;7.10;92.80;;;8.93;63.16;101055.25;3083277;46;20452;-70
2023/12/14 03:05:01;;;;;;;8.13;3.97;;;7.10;93.00;;;8.97;63.00;101069.72;3083350;46;20427;-70
2023/12/14 03:07:30;;;;;;;6.17;3.80;;;7.20;93.00;;;9.00;63.15;101067.63;3082396;46;20459;-69
2023/12/14 03:09:58;;;;;;;4.33;3.63;;;7.20;92.90;;;9.01;62.88;101069.25;3083034;46;20439;-70
2023/12/14 03:12:26;;;;;;;4.90;3.63;;;7.20;92.90;;;9.01;63.11;101069.25;3082981;46;20498;-71
2023/12/14 03:14:55;;;;;;;3.93;3.53;;;7.30;92.90;;;9.01;63.03;101071.88;3082452;46;21001;-71
2023/12/14 03:17:23;;;;;;;3.40;3.10;;;7.30;92.90;;;9.05;63.05;101075.84;3082543;46;20444;-70
2023/12/14 03:19:52;;;;;;;5.43;3.97;;;7.30;93.10;;;9.09;63.01;101078.97;3083063;46;20451;-70
2023/12/14 03:22:20;;;;;;;6.03;3.33;;;7.30;93.10;;;9.12;63.27;101082.13;3082815;46;20564;-69
2023/12/14 03:24:48;;;;;;;6.20;4.00;;;7.30;93.20;;;9.15;63.31;101081.78;3082830;46;20527;-70
2023/12/14 03:27:17;;;;;;;3.40;2.93;;;7.40;93.20;;;9.17;63.44;101074.59;3082334;46;20486;-70
2023/12/14 03:29:45;;;;;;;4.70;3.30;;;7.40;93.10;;;9.16;62.60;101078.19;3083108;46;20495;-70
2023/12/14 03:32:13;;;;;;;6.20;3.53;;;7.40;92.90;;;9.14;63.01;101081.94;3082738;46;21088;-70
2023/12/14 03:34:42;;;;;;;6.10;3.30;;;7.40;92.80;;;9.15;63.18;101081.78;3082837;46;20439;-70
2023/12/14 03:37:10;;;;;;;4.53;3.47;;;7.50;93.00;;;9.18;63.19;101089.34;3082218;46;20444;-70
2023/12/14 03:39:39;;;;;;;6.10;3.30;;;7.40;92.90;;;9.23;63.25;101094.13;3082901;46;20427;-67
2023/12/14 03:42:07;;;;;;;4.63;3.17;;;7.50;93.00;;;9.26;63.19;101097.28;3081802;46;20431;-71
2023/12/14 03:44:35;;;;;;;8.03;3.40;;;7.50;93.00;;;9.31;63.25;101096.81;3082983;46;21077;-70
2023/12/14 03:47:04;;;;;;;6.57;3.17;;;7.50;93.00;;;9.29;62.88;101099.59;3081527;46;20487;-70
2023/12/14 03:49:39;;;;;;;4.87;3.43;;;7.60;92.90;;;9.30;63.00;101106.50;3082493;46;20558;-69
2023/12/14 03:52:09;;;;;;;5.47;3.90;;;7.60;92.90;;;9.33;62.64;101102.72;3082651;46;20493;-70
2023/12/14 03:54:38;;;;;;;6.30;2.93;;;7.60;92.90;;;9.34;62.86;101110.44;3082845;46;20458;-70
2023/12/14 03:57:06;;;;;;;6.93;3.50;;;7.60;92.90;;;9.34;62.70;101117.50;3081397;46;20584;-70
2023/12/14 03:59:40;;;;;;;5.17;3.50;;;7.60;92.60;;;9.30;62.45;101116.16;3082722;46;20449;-70
2023/12/14 04:02:08;;;;;;;7.03;3.50;;;7.60;92.60;;;9.26;62.59;101120.91;3081647;46;20431;-70
2023/12/14 04:04:37;;;;;;;6.50;3.77;;;7.60;92.60;;;9.24;62.79;101122.06;3082336;46;20454;-70
2023/12/14 04:07:05;;;;;;;6.30;3.40;;;7.50;92.60;;;9.22;62.46;101130.06;3081864;46;20461;-69
2023/12/14 04:09:34;;;;;;;5.07;3.57;;;7.50;92.60;;;9.23;62.89;101133.53;3082959;46;21092;-69
2023/12/14 04:12:03;;;;;;;12.57;4.03;;;7.50;93.10;;;9.23;62.91;101134.34;3082149;46;20451;-70
2023/12/14 04:14:31;;;;;;;5.70;3.33;;;7.50;92.80;;;9.24;62.95;101132.56;3082568;46;20525;-70
2023/12/14 04:17:00;;;;;;;5.37;3.63;;;7.50;92.80;;;9.25;62.85;101135.03;3081764;46;20962;-69
2023/12/14 04:19:28;;;;;;;3.67;3.13;;;7.50;93.00;;;9.29;63.14;101146.88;3082219;46;20569;-71
2023/12/14 04:21:56;;;;;;;4.20;3.07;;;7.50;92.80;;;9.28;62.55;101145.22;3081946;46;20451;-70
2023/12/14 04:24:25;;;;;;;4.43;3.27;;;7.50;92.70;;;9.29;62.54;101151.31;3082410;46;20428;-70
2023/12/14 04:26:54;;;;;;;5.33;3.07;;;7.50;92.70;;;9.28;62.80;101163.59;3081634;46;21044;-70
2023/12/14 04:29:22;;;;;;;4.50;3.50;;;7.50;92.60;;;9.27;62.45;101169.03;3082255;46;20427;-70
2023/12/14 04:31:50;;;;;;;12.07;3.77;;;7.50;92.60;;;9.25;62.68;101163.91;3081756;46;20428;-69
2023/12/14 04:34:19;;;;;;;7.47;3.60;;;7.50;92.70;;;9.27;63.16;101169.03;3082386;46;20427;-70
2023/12/14 04:36:48;;;;;;;4.97;3.10;;;7.50;93.00;;;9.30;62.89;101176.56;3082000;46;20460;-70
2023/12/14 04:39:17;;;;;;;10.00;3.63;;;7.50;93.10;;;9.33;63.19;101177.09;3082038;46;20424;-70
2023/12/14 04:41:45;;;;;;;6.53;3.60;;;7.50;93.10;;;9.38;62.93;101184.50;3081132;46;20432;-70
2023/12/14 04:44:13;;;;;;;3.97;3.10;;;7.60;93.10;;;9.40;62.81;101180.75;3082186;46;20431;-70
2023/12/14 04:46:42;;;;;;;7.20;3.27;;;7.60;93.00;;;9.40;62.65;101175.50;3081893;46;20478;-70
2023/12/14 04:49:10;;;;;;;5.97;3.10;;;7.60;92.90;;;9.40;62.66;101188.63;3081660;46;20429;-70
2023/12/14 04:51:39;;;;;;;4.33;2.43;;;7.70;92.70;;;9.37;62.54;101185.47;3081909;46;20993;-70
2023/12/14 04:54:08;;;;;;;4.57;3.00;;;7.70;92.70;;;9.36;62.65;101192.56;3082186;46;20452;-71
2023/12/14 04:56:37;;;;;;;3.40;2.80;;;7.60;92.60;;;9.37;62.67;101204.69;3081674;46;20432;-69
2023/12/14 04:59:05;;;;;;;4.07;2.57;;;7.60;92.50;;;9.39;62.52;101215.03;3081862;46;20999;-69
2023/12/14 05:01:34;;;;;;;6.13;3.10;;;7.60;92.60;;;9.43;62.53;101209.34;3081677;46;21084;-70
2023/12/14 05:04:02;;;;;;;4.50;3.50;;;7.70;92.70;;;9.45;62.36;101210.00;3081863;46;20455;-71
2023/12/14 05:06:33;;;;;;;5.10;3.30;;;7.70;92.50;;;9.45;62.41;101215.25;3081759;46;20575;-70
2023/12/14 05:09:04;;;;;;;7.13;3.23;;;7.70;92.40;;;9.44;62.22;101218.03;3081588;46;20441;-70
2023/12/14 05:11:32;;;;;;;5.27;3.20;;;7.70;92.40;;;9.42;62.33;101228.69;3081973;46;21018;-70
2023/12/14 05:14:01;;;;;;;7.27;3.27;;;7.70;92.40;;;9.43;62.41;101233.00;3081670;46;20550;-69
2023/12/14 05:16:30;;;;;;;4.80;3.30;;;7.70;92.40;;;9.45;62.78;101232.81;3081334;46;20438;-69
2023/12/14 05:18:59;;;;;;;4.27;2.90;;;7.70;92.70;;;9.50;62.74;101239.28;3081945;46;20443;-70
2023/12/14 05:21:27;;;;;;;6.27;3.43;;;7.70;92.70;;;9.54;62.36;101242.41;3081798;46;20504;-70
2023/12/14 05:23:55;;;;;;;4.43;3.57;;;7.70;92.50;;;9.57;62.27;101244.72;3081683;46;20428;-70
2023/12/14 05:26:24;;;;;;;11.83;4.73;;;7.80;92.70;;;9.60;62.44;101248.84;3081381;46;20586;-69
2023/12/14 05:28:52;;;;;;;6.77;3.97;;;7.80;92.60;;;9.59;62.19;101247.19;3081451;46;20474;-68
2023/12/14 05:31:21;;;;;;;4.40;3.20;;;7.80;92.40;;;9.60;62.31;101259.34;3081388;46;20746;-70
2023/12/14 05:33:49;;;;;;;4.03;3.03;;;7.80;92.60;;;9.63;62.45;101261.69;3081473;46;20428;-69
2023/12/14 05:36:18;;;;;;;4.30;3.40;;;7.80;92.60;;;9.66;62.38;101269.22;3081806;46;20474;-70
2023/12/14 05:38:47;;;;;;;4.27;3.43;;;7.90;92.70;;;9.68;62.36;101262.84;3081279;46;20458;-70
2023/12/14 05:41:15;;;;;;;4.47;3.70;;;7.90;92.60;;;9.67;62.02;101266.47;3080730;46;20431;-70
2023/12/14 05:43:44;;;;;;;8.13;3.90;;;7.90;92.30;;;9.67;62.13;101270.88;3080782;46;20452;-69
2023/12/14 05:46:24;;;;;;;6.60;4.30;;;7.90;92.30;;;9.63;61.98;101264.31;3081516;46;20542;-68
2023/12/14 05:48:52;;;;;;;6.43;3.73;;;7.90;92.30;;;9.65;62.16;101280.75;3081154;46;20432;-71
2023/12/14 05:51:32;;;;;;;5.30;3.40;;;7.90;92.50;;;9.62;62.18;101273.16;3081527;46;20438;-71
2023/12/14 05:54:00;;;;;;;4.57;3.73;;;7.90;92.50;;;9.65;62.15;101288.63;3081203;46;20427;-69
2023/12/14 05:56:29;;;;;;;6.73;3.60;;;7.90;92.40;;;9.63;62.33;101285.34;3080956;46;20427;-69
2023/12/14 05:58:59;;;;;;;9.00;3.53;;;7.90;92.50;;;9.64;62.47;101292.22;3081387;46;20436;-70
2023/12/14 06:01:27;;;;;;;5.80;3.77;;;7.90;92.70;;;9.67;62.39;101290.13;3081407;46;20578;-69
2023/12/14 06:03:55;;;;;;;7.63;4.13;;;7.90;92.80;;;9.71;62.75;101288.00;3081392;46;20426;-70
2023/12/14 06:06:24;;;;;;;5.20;3.53;;;8.00;92.80;;;9.77;62.39;101297.91;3080982;46;20439;-70
2023/12/14 06:08:52;;;;;;;8.60;4.10;;;8.00;92.70;;;9.80;62.63;101294.94;3080931;46;21088;-69
2023/12/14 06:11:21;;;;;;;6.17;3.73;;;8.00;92.80;;;9.86;62.44;101303.06;3080817;46;20452;-70
2023/12/14 06:13:50;;;;;;;5.43;3.67;;;8.10;92.80;;;9.88;62.40;101310.78;3081083;46;21103;-71
2023/12/14 06:16:18;;;;;;;7.10;4.27;;;8.10;92.70;;;9.89;62.13;101307.97;3081019;46;20542;-69
2023/12/14 06:18:46;;;;;;;7.97;3.90;;;8.10;92.60;;;9.89;61.93;101315.06;3081311;46;20467;-70
2023/12/14 06:21:15;;;;;;;8.63;3.83;;;8.10;92.30;;;9.88;62.04;101316.03;3080625;46;20672;-70
2023/12/14 06:23:43;;;;;;;6.17;3.50;;;8.10;92.30;;;9.82;61.46;101320.09;3080620;46;20427;-69
2023/12/14 06:26:14;;;;;;;4.97;3.30;;;8.10;92.30;;;9.77;61.91;101316.28;3080842;46;20500;-70
2023/12/14 06:28:43;;;;;;;6.40;3.87;;;8.10;92.40;;;9.77;62.07;101324.19;3080128;46;20443;-69
2023/12/14 06:31:15;;;;;;;5.53;3.70;;;8.10;92.60;;;9.78;62.25;101337.16;3080724;46;20428;-69
2023/12/14 06:33:44;;;;;;;5.50;3.47;;;8.10;92.70;;;9.84;62.77;101325.22;3080590;46;20498;-69
2023/12/14 06:36:13;;;;;;;8.97;3.57;;;8.10;92.90;;;9.87;62.63;101333.59;3080864;46;20525;-69
2023/12/14 06:38:41;;;;;;;5.93;3.80;;;8.10;92.80;;;9.90;62.24;101342.97;3079837;46;20439;-69
2023/12/14 06:41:22;;;;;;;5.53;3.33;;;8.10;92.60;;;9.89;62.29;101351.88;3079314;46;21000;-70
2023/12/14 06:43:51;;;;;;;7.37;3.40;;;8.20;92.70;;;9.94;62.33;101357.47;3080340;46;21020;-68
2023/12/14 06:46:21;;;;;;;6.67;3.67;;;8.20;92.70;;;9.96;62.35;101366.03;3080362;46;20507;-70
2023/12/14 06:48:49;;;;;;;8.73;3.80;;;8.20;92.80;;;10.00;62.45;101372.63;3080165;46;20427;-71
2023/12/14 06:51:18;;;;;;;8.43;4.33;;;8.20;92.80;;;10.01;62.20;101363.75;3082275;46;20525;-69
2023/12/14 06:53:47;;;;;;;7.23;4.00;;;8.20;92.60;;;10.03;62.36;101372.34;3081874;46;20430;-70
2023/12/14 06:56:15;;;;;;;8.00;3.87;;;8.30;92.60;;;10.06;62.10;101382.50;3081456;46;20428;-68
2023/12/14 06:58:44;;;;;;;8.17;3.53;;;8.30;92.60;;;10.09;62.45;101385.69;3081921;46;20518;-69
2023/12/14 07:01:14;;;;;;;8.97;3.83;;;8.30;93.10;;;10.12;62.28;101387.19;3082389;46;20515;-70
2023/12/14 07:03:44;;;;;;;5.47;3.47;;;8.40;92.80;;;10.12;62.06;101397.72;3082427;46;21000;-70
2023/12/14 07:06:21;;;;;;;20.73;13.77;;;8.40;92.40;;;10.10;61.97;101399.66;3081745;46;21075;-70
2023/12/14 07:08:49;;;;;;;7.73;5.00;;;8.40;92.40;;;10.13;62.08;101404.63;3082413;46;20428;-70
2023/12/14 07:11:18;;;;;;;9.23;3.87;;;8.40;92.40;;;10.14;62.08;101414.16;3082008;46;20455;-70
2023/12/14 07:13:46;;;;;;;5.57;3.87;;;8.40;92.60;;;10.15;62.23;101419.25;3082181;46;20431;-71
2023/12/14 07:16:17;;;;;;;6.20;3.77;;;8.40;92.50;;;10.15;61.97;101418.44;3081976;46;20482;-70
2023/12/14 07:18:46;;;;;;;6.87;4.00;;;8.40;92.30;;;10.15;61.60;101421.06;3081670;46;20442;-69
2023/12/14 07:21:15;;;;;;;9.00;4.53;;;8.40;92.10;;;10.14;61.87;101425.53;3081938;46;20451;-69
2023/12/14 07:24:03;;;;;;;8.33;4.43;;;8.40;92.30;;;10.14;61.78;101427.31;3081948;46;20445;-71
2023/12/14 07:27:27;;;;;;;4.77;3.90;;;8.50;92.40;;;10.13;61.82;101436.19;3081394;46;20447;-70
2023/12/14 07:29:56;;;;;;;5.67;3.77;;;8.40;92.40;;;10.18;61.89;101434.75;3081915;46;20474;-70
2023/12/14 07:32:24;;;;;;;4.60;2.80;;;8.50;92.20;;;10.19;61.68;101448.72;3081895;46;21092;-69
2023/12/14 07:34:55;;;;;;;5.03;3.13;;;8.50;92.20;;;10.19;61.52;101440.84;3081706;46;20428;-71
2023/12/14 07:37:24;;;;;;;5.20;3.00;;;8.50;92.00;;;10.17;61.21;101453.31;3081504;46;20569;-70
2023/12/14 07:39:53;;;;;;;6.60;3.73;;;8.50;92.10;;;10.17;61.44;101458.59;3082220;46;20431;-71
2023/12/14 07:42:40;;;;;;;4.43;3.10;;;8.50;92.20;;;10.13;61.63;101458.06;3081134;46;21125;-70
2023/12/14 07:45:26;;;;;;;4.10;3.23;;;8.50;92.20;;;10.16;61.46;101459.56;3081019;46;20474;-69
2023/12/14 07:47:54;;;;;;;4.37;3.07;;;8.50;91.90;;;10.13;61.49;101459.84;3081529;46;20592;-70
2023/12/14 07:50:23;;;;;;;5.20;3.60;;;8.50;91.80;;;10.13;61.29;101478.25;3081693;46;20520;-68
2023/12/14 07:53:11;;;;;;;4.23;3.70;;;8.40;91.80;;;10.11;61.26;101480.19;3082023;46;20451;-71
2023/12/14 07:55:54;;;;;;;4.83;3.70;;;8.40;91.70;;;10.08;61.14;101481.31;3081232;46;20435;-71
2023/12/14 07:58:23;;;;;;;8.47;4.40;;;8.40;91.50;;;10.05;61.00;101486.09;3081274;46;20597;-70
2023/12/14 08:01:06;;;;;;;7.83;4.90;;;8.40;91.60;;;10.01;61.30;101490.81;3082051;46;20574;-71
2023/12/14 08:03:46;;;;;;;12.23;5.90;;;8.30;91.70;;;10.00;61.16;101488.34;3080844;46;20436;-71
2023/12/14 08:06:14;;;;;;;9.10;5.57;;;8.30;91.70;;;10.00;61.36;101498.84;3081547;46;20522;-70
2023/12/14 08:08:43;;;;;;;11.07;5.70;;;8.30;91.80;;;9.99;61.25;101497.19;3080883;46;20444;-70
2023/12/14 08:11:12;;;;;;;10.43;6.20;;;8.30;91.90;;;9.99;61.39;101505.91;3081758;46;20460;-70
2023/12/14 08:13:41;;;;;;;9.10;5.60;;;8.30;91.90;;;9.98;61.31;101504.25;3081514;46;20453;-70
2023/12/14 08:16:11;;;;;;;10.73;6.10;;;8.20;92.00;;;9.97;61.57;101510.50;3081479;46;20478;-70
2023/12/14 08:18:40;;;;;;;9.23;6.60;;;8.20;92.10;;;9.97;61.49;101515.75;3080711;46;21152;-69
2023/12/14 08:21:19;;;;;;;8.67;5.87;;;8.20;92.20;;;9.98;61.83;101527.13;3080737;46;20577;-72
2023/12/14 08:23:58;;;;;;;11.50;7.20;;;8.20;92.30;;;9.99;61.70;101534.00;3081203;46;20432;-69
2023/12/14 08:26:26;;;;;;;13.17;9.10;;;8.20;92.30;;;10.00;61.93;101525.16;3080882;46;20452;-71
2023/12/14 08:28:54;;;;;;;10.53;6.33;;;8.20;92.40;;;10.02;61.66;101533.72;3080900;43;20427;-70
2023/12/14 08:31:23;;;;;;;13.03;7.77;;;8.20;92.50;;;10.04;61.84;101529.13;3082337;46;20576;-72
2023/12/14 08:36:44;;;;;;;25.20;15.73;;;8.30;92.50;;;10.04;62.20;101535.22;3079718;46;20452;-70
2023/12/14 08:39:13;;;;;;;14.40;11.20;;;8.30;92.60;;;10.10;62.24;101541.69;3081105;46;20512;-72
2023/12/14 08:41:41;;;;;;;13.23;7.33;;;8.30;92.70;;;10.17;62.21;101548.03;3080574;46;20424;-70
2023/12/14 08:44:25;;;;;;;11.57;8.87;;;8.30;92.70;;;10.19;61.98;101548.69;3080419;46;20980;-71
2023/12/14 08:46:53;;;;;;;11.40;9.10;;;8.40;92.60;;;10.22;62.13;101550.19;3080908;46;20440;-70
2023/12/14 08:49:23;;;;;;;12.40;8.17;;;8.40;92.60;;;10.27;62.08;101554.00;3080880;46;20427;-69
2023/12/14 08:51:51;;;;;;;15.10;7.63;;;8.40;92.70;;;10.32;62.17;101556.19;3080499;46;20427;-70
2023/12/14 08:54:20;;;;;;;10.70;6.60;;;8.50;92.80;;;10.39;61.92;101562.50;3081094;46;21093;-70
2023/12/14 08:56:48;;;;;;;9.10;5.97;;;8.50;92.70;;;10.43;61.63;101563.84;3081093;46;20443;-70
2023/12/14 08:59:16;;;;;;;13.50;6.70;;;8.50;92.70;;;10.44;61.76;101568.09;3081350;46;20436;-70
2023/12/14 09:01:45;;;;;;;8.77;6.67;;;8.60;92.60;;;10.44;61.72;101566.31;3080820;46;20537;-71
2023/12/14 09:04:14;;;;;;;12.07;7.50;;;8.60;92.50;;;10.47;61.51;101566.00;3081290;46;20427;-70
2023/12/14 09:06:44;;;;;;;11.37;7.70;;;8.60;92.30;;;10.49;61.56;101573.75;3080185;46;21058;-70
2023/12/14 09:09:13;;;;;;;8.37;6.03;;;8.60;92.30;;;10.54;61.76;101574.94;3079959;46;21096;-69
2023/12/14 09:11:41;;;;;;;9.33;6.03;;;8.70;92.50;;;10.58;61.34;101573.66;3079947;46;21019;-70
2023/12/14 09:14:10;;;;;;;13.33;6.70;;;8.70;92.40;;;10.61;61.33;101580.41;3080371;46;21084;-69
2023/12/14 09:16:38;;;;;;;12.03;6.53;;;8.70;92.30;;;10.64;61.23;101588.84;3080322;46;20571;-71
2023/12/14 09:19:07;;;;;;;10.43;6.33;;;8.70;92.30;;;10.67;61.20;101593.78;3080862;46;20432;-70
2023/12/14 09:21:37;;;;;;;11.33;6.73;;;8.80;92.20;;;10.72;61.10;101591.50;3080145;46;20476;-69
2023/12/14 09:24:12;;;;;;;10.60;6.23;;;8.80;92.30;;;10.77;61.05;101599.78;3080271;46;21003;-69
2023/12/14 09:26:41;;;;;;;11.20;6.67;;;8.90;92.30;;;10.78;60.55;101609.34;3080661;46;20519;-70
2023/12/14 09:29:10;;;;;;;10.57;6.20;;;8.80;91.80;;;10.76;60.57;101619.22;3079995;46;20560;-69
2023/12/14 09:31:43;;;;;;;10.87;5.77;;;8.90;91.80;;;10.71;60.44;101621.47;3080724;43;20448;-70
2023/12/14 09:34:12;;;;;;;8.07;5.73;;;8.90;92.00;;;10.68;60.65;101627.03;3078314;46;20466;-69
2023/12/14 09:36:40;;;;;;;7.43;6.60;;;8.80;91.70;;;10.68;60.56;101621.78;3080575;46;20469;-69
2023/12/14 09:39:10;;;;;;;20.93;14.57;;;8.80;91.70;;;10.69;60.51;101623.44;3079919;46;20431;-71
2023/12/14 09:41:39;;;;;;;11.47;7.23;;;8.80;91.80;;;10.74;60.69;101636.13;3079558;46;20521;-70
2023/12/14 09:44:07;;;;;;;12.63;8.13;;;8.80;91.90;;;10.77;60.66;101636.66;3080972;46;20560;-70
2023/12/14 09:46:38;;;;;;;11.63;6.77;;;8.90;91.80;;;10.81;60.48;101632.75;3080718;46;21159;-70
2023/12/14 09:49:08;;;;;;;12.70;5.73;;;8.90;91.90;;;10.84;60.27;101637.69;3080574;46;20449;-71
2023/12/14 09:51:36;;;;;;;10.07;6.67;;;8.90;91.60;;;10.86;60.27;101648.88;3080774;46;21061;-69
2023/12/14 09:54:05;;;;;;;15.47;8.13;;;8.90;91.70;;;10.92;60.35;101643.97;3080437;46;20497;-70
2023/12/14 09:56:33;;;;;;;18.40;12.50;;;8.90;91.70;;;11.00;60.23;101654.59;3080620;46;20467;-71
2023/12/14 09:59:04;;;;;;;16.13;8.17;;;9.00;91.90;;;11.09;60.28;101646.59;3080492;46;20428;-71
2023/12/14 10:01:32;;;;;;;9.20;6.53;;;9.10;91.80;;;11.14;59.94;101646.13;3081114;46;20434;-70
2023/12/14 10:04:13;;;;;;;8.93;6.57;;;9.10;91.50;;;11.13;59.76;101662.88;3080289;46;20440;-69
2023/12/14 10:06:46;;;;;;;10.97;5.53;;;9.20;91.20;;;11.19;59.71;101662.28;3080310;46;20439;-70
2023/12/14 10:09:18;;;;;;;9.73;6.83;;;9.20;91.40;;;11.22;59.61;101661.97;3079684;46;20476;-71
2023/12/14 10:11:47;;;;;;;11.47;7.47;;;9.20;91.40;;;11.27;59.37;101670.22;3080432;46;20451;-70
2023/12/14 10:14:25;;;;;;;9.30;7.03;;;9.20;91.40;;;11.33;59.43;101678.34;3080648;46;20431;-71
2023/12/14 10:16:54;;;;;;;9.00;7.20;;;9.30;91.50;;;11.44;59.16;101685.16;3080196;46;20533;-69
2023/12/14 10:19:33;;;;;;;19.03;11.13;;;9.40;91.40;;;11.47;59.01;101679.56;3080503;46;20423;-71
2023/12/14 10:22:02;;;;;;;10.90;6.80;;;9.40;91.20;;;11.50;58.66;101681.91;3080429;46;20521;-71
2023/12/14 10:24:33;;;;;;;10.13;6.70;;;9.40;91.10;;;11.49;58.43;101685.50;3081331;46;21005;-70
2023/12/14 10:27:08;;;;;;;13.40;7.10;;;9.50;91.00;;;11.43;58.42;101689.59;3082357;46;20436;-71
2023/12/14 10:29:39;;;;;;;10.27;7.70;;;9.50;90.90;;;11.41;58.74;101682.84;3082853;46;20428;-71
2023/12/14 10:32:08;;;;;;;45.43;32.30;;;9.50;90.80;;;11.43;58.88;101688.78;3082713;46;21066;-70
2023/12/14 10:34:38;;;;;;;13.30;9.33;;;9.50;91.00;;;11.47;58.90;101695.38;3083113;46;20439;-70
2023/12/14 10:37:08;;;;;;;11.63;8.77;;;9.50;91.00;;;11.45;58.75;101700.00;3082118;46;20584;-70